createdAt,value
2017-11-15T13:20:01.485Z,10.86
2017-11-15T13:21:01.476Z,10.96
2017-11-15T13:22:01.506Z,10.86
2017-11-15T13:23:01.542Z,10.86
2017-11-15T13:24:01.576Z,10.95
2017-11-15T13:25:01.611Z,10.96
2017-11-15T13:26:01.644Z,10.98
2017-11-15T13:27:01.682Z,10.89
2017-11-15T13:28:01.703Z,10.96
2017-11-15T13:29:01.738Z,10.88
2017-11-15T13:30:02.038Z,10.91
2017-11-15T13:31:01.813Z,10.95
2017-11-15T13:32:01.850Z,10.98
2017-11-15T13:33:01.882Z,10.98
2017-11-15T13:34:01.920Z,11.01
2017-11-15T13:35:01.955Z,10.91
2017-11-15T13:36:01.983Z,10.91
2017-11-15T13:37:02.279Z,10.92
2017-11-15T13:38:02.098Z,10.95
2017-11-15T13:39:02.132Z,10.88
2017-11-15T13:40:02.435Z,10.94
2017-11-15T13:41:02.192Z,10.81
2017-11-15T13:42:02.204Z,10.86
2017-11-15T13:43:02.238Z,10.95
2017-11-15T13:44:02.526Z,10.8
2017-11-15T13:45:02.299Z,10.86
2017-11-15T13:46:02.330Z,10.94
2017-11-15T13:47:02.362Z,10.89
2017-11-15T13:48:02.469Z,10.81
2017-11-15T13:49:02.434Z,10.94
2017-11-15T13:50:02.469Z,10.89
2017-11-15T13:51:02.522Z,10.99
2017-11-15T13:52:02.534Z,10.84
2017-11-15T13:53:02.567Z,10.84
2017-11-15T13:54:02.605Z,10.95
2017-11-15T13:55:02.639Z,10.96
2017-11-15T13:56:02.671Z,10.89
2017-11-15T13:57:02.707Z,10.91
2017-11-15T13:58:02.741Z,10.92
2017-11-15T13:59:02.773Z,10.8
2017-11-15T14:00:02.821Z,10.78
2017-11-15T14:01:02.842Z,10.86
2017-11-15T14:02:02.877Z,10.96
2017-11-15T14:03:02.912Z,10.94
2017-11-15T14:04:02.948Z,10.8
2017-11-15T14:05:02.981Z,10.86
2017-11-15T14:06:03.012Z,10.81
2017-11-15T14:07:03.050Z,10.83
2017-11-15T14:08:03.086Z,10.83
2017-11-15T14:09:03.119Z,10.73
2017-11-15T14:10:03.151Z,10.8
2017-11-15T14:11:03.186Z,10.86
2017-11-15T14:12:03.219Z,10.84
2017-11-15T14:13:03.253Z,10.83
2017-11-15T14:14:03.285Z,10.86
2017-11-15T14:15:03.592Z,10.89
2017-11-15T14:16:03.352Z,10.83
2017-11-15T14:17:03.391Z,10.81
2017-11-15T14:18:03.421Z,10.83
2017-11-15T14:19:03.457Z,10.88
2017-11-15T14:20:03.539Z,10.83
2017-11-15T14:21:03.529Z,10.8
2017-11-15T14:22:03.562Z,10.78
2017-11-15T14:23:03.616Z,10.78
2017-11-15T14:24:03.888Z,10.86
2017-11-15T14:25:03.661Z,10.88
2017-11-15T14:26:03.698Z,10.84
2017-11-15T14:27:03.728Z,10.8
2017-11-15T14:28:03.763Z,10.71
2017-11-15T14:29:04.068Z,10.68
2017-11-15T14:30:03.839Z,10.7
2017-11-15T14:31:04.441Z,10.68
2017-11-15T14:32:03.899Z,10.65
2017-11-15T14:33:03.937Z,10.71
2017-11-15T14:34:03.971Z,10.58
2017-11-15T14:35:03.999Z,10.63
2017-11-15T14:36:04.036Z,10.58
2017-11-15T14:37:04.158Z,10.63
2017-11-15T14:38:04.102Z,10.51
2017-11-15T14:39:04.144Z,10.53
2017-11-15T14:40:04.172Z,10.59
2017-11-15T14:41:04.207Z,10.58
2017-11-15T14:42:04.240Z,10.56
2017-11-15T14:43:04.269Z,10.55
2017-11-15T14:44:04.306Z,10.55
2017-11-15T14:45:04.345Z,10.53
2017-11-15T14:46:04.372Z,10.47
2017-11-15T14:47:04.706Z,10.51
2017-11-15T14:48:04.440Z,10.52
2017-11-15T14:49:04.474Z,10.53
2017-11-15T14:50:04.772Z,10.58
2017-11-15T14:51:04.546Z,10.58
2017-11-15T14:52:04.612Z,10.53
2017-11-15T14:53:04.881Z,10.47
2017-11-15T14:54:04.650Z,10.52
2017-11-15T14:55:04.676Z,10.47
2017-11-15T14:56:04.711Z,10.44
2017-11-15T14:57:04.743Z,10.39
2017-11-15T14:58:04.783Z,10.42
2017-11-15T14:59:04.858Z,10.4
2017-11-15T15:00:04.849Z,10.42
2017-11-15T15:01:05.086Z,10.28
2017-11-15T15:02:04.917Z,10.3
2017-11-15T15:03:04.948Z,10.32
2017-11-15T15:04:05.258Z,10.19
2017-11-15T15:05:05.020Z,10.22
2017-11-15T15:06:05.208Z,10.18
2017-11-15T15:07:05.088Z,10.18
2017-11-15T15:08:05.114Z,10.19
2017-11-15T15:09:05.150Z,10.19
2017-11-15T15:10:05.185Z,10.18
2017-11-15T15:11:05.234Z,10.15
2017-11-15T15:12:05.247Z,10.06
2017-11-15T15:13:05.325Z,10.06
2017-11-15T15:14:06.283Z,10.03
2017-11-15T15:15:05.353Z,10.1
2017-11-15T15:16:05.408Z,10.07
2017-11-15T15:17:05.426Z,9.96
2017-11-15T15:18:05.725Z,9.97
2017-11-15T15:19:05.485Z,9.88
2017-11-15T15:20:05.783Z,9.96
2017-11-15T15:21:05.553Z,9.89
2017-11-15T15:22:05.588Z,9.97
2017-11-15T15:23:05.620Z,9.94
2017-11-15T15:24:05.654Z,9.97
2017-11-15T15:25:05.685Z,9.85
2017-11-15T15:26:05.717Z,9.97
2017-11-15T15:27:05.754Z,9.96
2017-11-15T15:28:05.914Z,9.91
2017-11-15T15:29:06.036Z,10.1
2017-11-15T15:30:05.855Z,10.03
2017-11-15T15:31:05.890Z,9.96
2017-11-15T15:32:05.921Z,9.99
2017-11-15T15:33:06.280Z,10.03
2017-11-15T15:34:06.023Z,10.03
2017-11-15T15:35:06.018Z,10.03
2017-11-15T15:36:06.052Z,9.99
2017-11-15T15:37:06.094Z,10.07
2017-11-15T15:38:06.120Z,10
2017-11-15T15:39:06.165Z,9.96
2017-11-15T15:40:06.189Z,10.03
2017-11-15T15:41:06.225Z,10.01
2017-11-15T15:42:07.092Z,10.04
2017-11-15T15:43:06.299Z,10.03
2017-11-15T15:44:06.325Z,10.1
2017-11-15T15:45:06.355Z,10.04
2017-11-15T15:46:06.392Z,10.18
2017-11-15T15:47:06.423Z,10.15
2017-11-15T15:48:06.453Z,10.03
2017-11-15T15:49:06.497Z,10.12
2017-11-15T15:50:06.522Z,10.14
2017-11-15T15:51:06.570Z,10.12
2017-11-15T15:52:06.599Z,9.97
2017-11-15T15:53:06.723Z,10.1
2017-11-15T15:54:06.669Z,10.03
2017-11-15T15:55:06.781Z,10.03
2017-11-15T15:56:06.731Z,10.01
2017-11-15T15:57:06.762Z,10.03
2017-11-15T15:58:06.787Z,10
2017-11-15T15:59:06.826Z,10.03
2017-11-15T16:00:06.864Z,10.01
2017-11-15T16:01:06.893Z,10.07
2017-11-15T16:02:06.922Z,9.94
2017-11-15T16:03:06.961Z,9.97
2017-11-15T16:04:07.002Z,9.97
2017-11-15T16:05:07.032Z,10
2017-11-15T16:06:07.059Z,9.96
2017-11-15T16:07:07.094Z,10
2017-11-15T16:08:07.164Z,9.96
2017-11-15T16:09:07.163Z,9.93
2017-11-15T16:10:07.195Z,9.97
2017-11-15T16:11:07.261Z,9.93
2017-11-15T16:12:07.259Z,9.96
2017-11-15T16:13:07.318Z,9.96
2017-11-15T16:14:07.331Z,9.97
2017-11-15T16:15:07.357Z,9.96
2017-11-15T16:16:07.403Z,9.91
2017-11-15T16:17:07.509Z,9.97
2017-11-15T16:18:07.456Z,10.01
2017-11-15T16:19:07.493Z,9.97
2017-11-15T16:20:07.555Z,10.04
2017-11-15T16:21:07.559Z,9.96
2017-11-15T16:22:07.628Z,10.04
2017-11-15T16:23:07.655Z,10.06
2017-11-15T16:24:07.661Z,9.94
2017-11-15T16:25:07.696Z,10.04
2017-11-15T16:26:07.736Z,9.97
2017-11-15T16:27:07.759Z,9.97
2017-11-15T16:28:07.805Z,10.01
2017-11-15T16:29:07.830Z,9.97
2017-11-15T16:30:07.882Z,9.97
2017-11-15T16:31:07.892Z,9.99
2017-11-15T16:32:07.932Z,9.91
2017-11-15T16:33:07.959Z,10
2017-11-15T16:34:07.996Z,10.06
2017-11-15T16:35:08.032Z,10.04
2017-11-15T16:36:08.064Z,9.99
2017-11-15T16:37:08.106Z,9.96
2017-11-15T16:38:08.133Z,10.03
2017-11-15T16:39:08.160Z,10
2017-11-15T16:40:08.196Z,9.96
2017-11-15T16:41:08.229Z,10.03
2017-11-15T16:42:08.265Z,10.01
2017-11-15T16:43:08.297Z,10
2017-11-15T16:44:08.597Z,10.03
2017-11-15T16:45:08.367Z,10.01
2017-11-15T16:46:08.401Z,10.04
2017-11-15T16:47:08.429Z,10.04
2017-11-15T16:48:08.461Z,9.96
2017-11-15T16:49:08.499Z,10.06
2017-11-15T16:50:08.530Z,9.97
2017-11-15T16:51:08.564Z,9.97
2017-11-15T16:52:08.600Z,9.93
2017-11-15T16:53:08.630Z,9.94
2017-11-15T16:54:08.664Z,9.88
2017-11-15T16:55:08.699Z,9.91
2017-11-15T16:56:08.734Z,9.91
2017-11-15T16:57:08.762Z,9.89
2017-11-15T16:58:09.069Z,9.97
2017-11-15T16:59:08.837Z,9.96
2017-11-15T17:00:08.869Z,9.89
2017-11-15T17:01:08.920Z,9.96
2017-11-15T17:02:08.957Z,9.91
2017-11-15T17:03:09.238Z,9.88
2017-11-15T17:04:09.015Z,9.89
2017-11-15T17:05:09.037Z,10
2017-11-15T17:06:09.065Z,9.93
2017-11-15T17:07:09.099Z,9.85
2017-11-15T17:08:09.131Z,9.91
2017-11-15T17:09:09.162Z,9.97
2017-11-15T17:10:09.202Z,9.96
2017-11-15T17:11:09.235Z,9.89
2017-11-15T17:12:09.267Z,10
2017-11-15T17:13:09.301Z,9.97
2017-11-15T17:14:09.339Z,9.94
2017-11-15T17:15:09.370Z,9.93
2017-11-15T17:16:09.403Z,9.94
2017-11-15T17:17:09.433Z,9.89
2017-11-15T17:18:09.542Z,9.82
2017-11-15T17:19:09.498Z,9.99
2017-11-15T17:20:09.537Z,9.93
2017-11-15T17:21:09.602Z,9.93
2017-11-15T17:22:09.602Z,9.94
2017-11-15T17:23:09.636Z,9.97
2017-11-15T17:24:09.938Z,9.93
2017-11-15T17:25:09.700Z,10
2017-11-15T17:26:09.740Z,9.93
2017-11-15T17:27:09.769Z,9.82
2017-11-15T17:28:09.805Z,9.85
2017-11-15T17:29:10.105Z,10
2017-11-15T17:30:09.868Z,9.83
2017-11-15T17:31:09.904Z,9.93
2017-11-15T17:32:09.937Z,9.97
2017-11-15T17:33:09.970Z,9.97
2017-11-15T17:34:10.000Z,9.89
2017-11-15T17:35:10.039Z,9.85
2017-11-15T17:36:10.207Z,9.83
2017-11-15T17:37:10.103Z,9.83
2017-11-15T17:38:10.136Z,9.89
2017-11-15T17:39:10.173Z,9.86
2017-11-15T17:40:10.203Z,9.96
2017-11-15T17:41:10.239Z,9.85
2017-11-15T17:42:10.271Z,9.83
2017-11-15T17:43:10.303Z,9.83
2017-11-15T17:44:10.341Z,9.81
2017-11-15T17:45:10.373Z,9.91
2017-11-15T17:46:10.405Z,9.82
2017-11-15T17:47:10.439Z,9.76
2017-11-15T17:48:10.471Z,9.81
2017-11-15T17:49:10.504Z,9.73
2017-11-15T17:50:10.534Z,9.76
2017-11-15T17:51:10.569Z,9.76
2017-11-15T17:52:10.601Z,9.73
2017-11-15T17:53:10.635Z,9.71
2017-11-15T17:54:10.667Z,9.68
2017-11-15T17:55:10.703Z,9.67
2017-11-15T17:56:10.737Z,9.64
2017-11-15T17:57:10.770Z,9.61
2017-11-15T17:58:10.809Z,9.63
2017-11-15T17:59:10.839Z,9.73
2017-11-15T18:00:10.869Z,9.66
2017-11-15T18:01:10.902Z,9.67
2017-11-15T18:02:11.198Z,9.64
2017-11-15T18:03:10.967Z,9.57
2017-11-15T18:04:11.000Z,9.53
2017-11-15T18:05:11.032Z,9.58
2017-11-15T18:06:11.296Z,9.6
2017-11-15T18:07:11.375Z,9.7
2017-11-15T18:08:11.141Z,9.66
2017-11-15T18:09:11.317Z,9.66
2017-11-15T18:10:11.201Z,9.63
2017-11-15T18:11:11.309Z,9.58
2017-11-15T18:12:11.265Z,9.58
2017-11-15T18:13:11.305Z,9.61
2017-11-15T18:14:11.341Z,9.6
2017-11-15T18:15:11.429Z,9.73
2017-11-15T18:16:11.402Z,9.61
2017-11-15T18:17:11.438Z,9.67
2017-11-15T18:18:11.466Z,9.6
2017-11-15T18:19:12.029Z,9.67
2017-11-15T18:20:11.534Z,9.58
2017-11-15T18:21:11.835Z,9.61
2017-11-15T18:22:11.611Z,9.58
2017-11-15T18:23:11.630Z,9.6
2017-11-15T18:24:11.687Z,9.7
2017-11-15T18:25:11.702Z,9.6
2017-11-15T18:26:11.734Z,9.63
2017-11-15T18:27:11.768Z,9.64
2017-11-15T18:28:12.076Z,9.6
2017-11-15T18:29:11.832Z,9.66
2017-11-15T18:30:11.870Z,9.66
2017-11-15T18:31:11.901Z,9.75
2017-11-15T18:32:11.930Z,9.75
2017-11-15T18:33:11.963Z,9.68
2017-11-15T18:34:12.016Z,9.67
2017-11-15T18:35:12.295Z,9.61
2017-11-15T18:36:12.068Z,9.64
2017-11-15T18:37:12.386Z,9.63
2017-11-15T18:38:12.135Z,9.66
2017-11-15T18:39:12.163Z,9.64
2017-11-15T18:40:12.196Z,9.67
2017-11-15T18:41:12.241Z,9.6
2017-11-15T18:42:12.269Z,9.6
2017-11-15T18:43:12.301Z,9.57
2017-11-15T18:44:12.337Z,9.66
2017-11-15T18:45:12.634Z,9.61
2017-11-15T18:46:12.400Z,9.6
2017-11-15T18:47:12.435Z,9.61
2017-11-15T18:48:12.469Z,9.66
2017-11-15T18:49:12.502Z,9.61
2017-11-15T18:50:12.532Z,9.61
2017-11-15T18:51:12.571Z,9.64
2017-11-15T18:52:12.604Z,9.57
2017-11-15T18:53:12.636Z,9.6
2017-11-15T18:54:12.664Z,9.56
2017-11-15T18:55:12.969Z,9.63
2017-11-15T18:56:12.736Z,9.52
2017-11-15T18:57:12.767Z,9.6
2017-11-15T18:58:12.801Z,9.52
2017-11-15T18:59:12.834Z,9.52
2017-11-15T19:00:12.862Z,9.6
2017-11-15T19:01:12.905Z,9.58
2017-11-15T19:02:12.936Z,9.64
2017-11-15T19:03:12.963Z,9.56
2017-11-15T19:04:12.997Z,9.6
2017-11-15T19:05:13.030Z,9.56
2017-11-15T19:06:13.063Z,9.53
2017-11-15T19:07:13.100Z,9.6
2017-11-15T19:08:13.132Z,9.58
2017-11-15T19:09:13.164Z,9.58
2017-11-15T19:10:13.200Z,9.58
2017-11-15T19:11:13.234Z,9.58
2017-11-15T19:12:13.277Z,9.57
2017-11-15T19:13:13.299Z,9.57
2017-11-15T19:14:13.330Z,9.53
2017-11-15T19:15:13.645Z,9.53
2017-11-15T19:16:13.397Z,9.58
2017-11-15T19:17:13.431Z,9.6
2017-11-15T19:18:13.749Z,9.61
2017-11-15T19:19:13.497Z,9.57
2017-11-15T19:20:13.527Z,9.52
2017-11-15T19:21:13.564Z,9.5
2017-11-15T19:22:13.605Z,9.66
2017-11-15T19:23:13.628Z,9.63
2017-11-15T19:24:13.665Z,9.52
2017-11-15T19:25:13.698Z,9.53
2017-11-15T19:26:13.735Z,9.6
2017-11-15T19:27:13.764Z,9.5
2017-11-15T19:28:13.796Z,9.6
2017-11-15T19:29:13.829Z,9.58
2017-11-15T19:30:13.862Z,9.63
2017-11-15T19:31:13.895Z,9.66
2017-11-15T19:32:13.932Z,9.56
2017-11-15T19:33:14.488Z,9.64
2017-11-15T19:34:13.990Z,9.58
2017-11-15T19:35:14.025Z,9.64
2017-11-15T19:36:14.059Z,9.63
2017-11-15T19:37:14.093Z,9.61
2017-11-15T19:38:14.125Z,9.66
2017-11-15T19:39:14.160Z,9.61
2017-11-15T19:40:14.197Z,9.66
2017-11-15T19:41:14.232Z,9.63
2017-11-15T19:42:14.265Z,9.68
2017-11-15T19:43:14.297Z,9.66
2017-11-15T19:44:14.328Z,9.68
2017-11-15T19:45:14.361Z,9.78
2017-11-15T19:46:14.394Z,9.61
2017-11-15T19:47:14.427Z,9.67
2017-11-15T19:48:14.458Z,9.7
2017-11-15T19:49:14.494Z,9.73
2017-11-15T19:50:14.531Z,9.68
2017-11-15T19:51:14.562Z,9.68
2017-11-15T19:52:14.596Z,9.71
2017-11-15T19:53:14.628Z,9.78
2017-11-15T19:54:14.660Z,9.7
2017-11-15T19:55:14.693Z,9.68
2017-11-15T19:56:14.728Z,9.73
2017-11-15T19:57:14.763Z,9.75
2017-11-15T19:58:14.794Z,9.67
2017-11-15T19:59:14.827Z,9.7
2017-11-15T20:00:14.862Z,9.7
2017-11-15T20:01:14.890Z,9.7
2017-11-15T20:02:14.927Z,9.75
2017-11-15T20:03:14.958Z,9.73
2017-11-15T20:04:14.996Z,9.73
2017-11-15T20:05:15.024Z,9.79
2017-11-15T20:06:15.095Z,9.7
2017-11-15T20:07:15.099Z,9.71
2017-11-15T20:08:15.128Z,9.71
2017-11-15T20:09:15.171Z,9.73
2017-11-15T20:10:15.197Z,9.75
2017-11-15T20:11:15.227Z,9.73
2017-11-15T20:12:15.257Z,9.73
2017-11-15T20:13:15.294Z,9.7
2017-11-15T20:14:15.325Z,9.71
2017-11-15T20:15:15.361Z,9.75
2017-11-15T20:16:15.397Z,9.73
2017-11-15T20:17:15.433Z,9.71
2017-11-15T20:18:15.463Z,9.75
2017-11-15T20:19:15.496Z,9.78
2017-11-15T20:20:15.528Z,9.68
2017-11-15T20:21:15.563Z,9.66
2017-11-15T20:22:15.596Z,9.78
2017-11-15T20:23:15.634Z,9.68
2017-11-15T20:24:15.663Z,9.78
2017-11-15T20:25:15.721Z,9.68
2017-11-15T20:26:15.729Z,9.78
2017-11-15T20:27:15.764Z,9.75
2017-11-15T20:28:16.063Z,9.71
2017-11-15T20:29:15.831Z,9.81
2017-11-15T20:30:16.127Z,9.75
2017-11-15T20:31:15.904Z,9.75
2017-11-15T20:32:15.930Z,9.76
2017-11-15T20:33:15.966Z,9.71
2017-11-15T20:34:15.995Z,9.78
2017-11-15T20:35:16.031Z,9.79
2017-11-15T20:36:16.334Z,9.7
2017-11-15T20:37:16.092Z,9.78
2017-11-15T20:38:16.134Z,9.7
2017-11-15T20:39:16.166Z,9.78
2017-11-15T20:40:16.198Z,9.76
2017-11-15T20:41:16.229Z,9.78
2017-11-15T20:42:16.266Z,9.68
2017-11-15T20:43:16.298Z,9.73
2017-11-15T20:44:16.331Z,9.75
2017-11-15T20:45:16.363Z,9.67
2017-11-15T20:46:16.403Z,9.7
2017-11-15T20:47:16.434Z,9.68
2017-11-15T20:48:16.462Z,9.68
2017-11-15T20:49:16.500Z,9.75
2017-11-15T20:50:16.530Z,9.64
2017-11-15T20:51:16.566Z,9.68
2017-11-15T20:52:16.861Z,9.68
2017-11-15T20:53:16.634Z,9.68
2017-11-15T20:54:16.663Z,9.75
2017-11-15T20:55:16.697Z,9.71
2017-11-15T20:56:16.732Z,9.7
2017-11-15T20:57:16.767Z,9.73
2017-11-15T20:58:16.796Z,9.76
2017-11-15T20:59:16.828Z,9.78
2017-11-15T21:00:16.871Z,9.71
2017-11-15T21:01:17.370Z,9.75
2017-11-15T21:02:16.931Z,9.75
2017-11-15T21:03:16.967Z,9.79
2017-11-15T21:04:16.995Z,9.75
2017-11-15T21:05:17.030Z,9.75
2017-11-15T21:06:17.065Z,9.75
2017-11-15T21:07:17.376Z,9.71
2017-11-15T21:08:17.131Z,9.79
2017-11-15T21:09:17.165Z,9.76
2017-11-15T21:10:17.200Z,9.78
2017-11-15T21:11:17.234Z,9.76
2017-11-15T21:12:17.537Z,9.78
2017-11-15T21:13:17.295Z,9.75
2017-11-15T21:14:17.332Z,9.73
2017-11-15T21:15:17.368Z,9.71
2017-11-15T21:16:17.401Z,9.75
2017-11-15T21:17:17.432Z,9.78
2017-11-15T21:18:17.466Z,9.79
2017-11-15T21:19:17.506Z,9.79
2017-11-15T21:20:17.534Z,9.75
2017-11-15T21:21:17.562Z,9.81
2017-11-15T21:22:17.600Z,9.79
2017-11-15T21:23:17.632Z,9.73
2017-11-15T21:24:17.665Z,9.73
2017-11-15T21:25:17.701Z,9.81
2017-11-15T21:26:17.732Z,9.81
2017-11-15T21:27:17.765Z,9.81
2017-11-15T21:28:17.806Z,9.85
2017-11-15T21:29:17.834Z,9.76
2017-11-15T21:30:17.867Z,9.73
2017-11-15T21:31:17.902Z,9.73
2017-11-15T21:32:17.930Z,9.83
2017-11-15T21:33:17.967Z,9.78
2017-11-15T21:34:18.003Z,9.78
2017-11-15T21:35:18.035Z,9.81
2017-11-15T21:36:18.070Z,9.76
2017-11-15T21:37:18.102Z,9.79
2017-11-15T21:38:18.134Z,9.82
2017-11-15T21:39:18.165Z,9.82
2017-11-15T21:40:18.205Z,9.68
2017-11-15T21:41:18.237Z,9.73
2017-11-15T21:42:18.270Z,9.76
2017-11-15T21:43:18.302Z,9.7
2017-11-15T21:44:18.338Z,9.73
2017-11-15T21:45:18.370Z,9.71
2017-11-15T21:46:18.403Z,9.71
2017-11-15T21:47:18.435Z,9.75
2017-11-15T21:48:18.470Z,9.86
2017-11-15T21:49:18.503Z,9.71
2017-11-15T21:50:18.535Z,9.71
2017-11-15T21:51:18.569Z,9.73
2017-11-15T21:52:18.602Z,9.82
2017-11-15T21:53:18.638Z,9.73
2017-11-15T21:54:18.665Z,9.81
2017-11-15T21:55:18.707Z,9.79
2017-11-15T21:56:18.734Z,9.75
2017-11-15T21:57:18.771Z,9.71
2017-11-15T21:58:18.805Z,9.83
2017-11-15T21:59:18.837Z,9.81
2017-11-15T22:00:18.877Z,9.73
2017-11-15T22:01:18.901Z,9.76
2017-11-15T22:02:18.936Z,9.75
2017-11-15T22:03:18.971Z,9.79
2017-11-15T22:04:19.030Z,9.75
2017-11-15T22:05:19.040Z,9.75
2017-11-15T22:06:19.068Z,9.71
2017-11-15T22:07:19.106Z,9.75
2017-11-15T22:08:19.138Z,9.71
2017-11-15T22:09:19.169Z,9.76
2017-11-15T22:10:19.206Z,9.71
2017-11-15T22:11:19.240Z,9.79
2017-11-15T22:12:19.270Z,9.71
2017-11-15T22:13:19.320Z,9.71
2017-11-15T22:14:19.359Z,9.7
2017-11-15T22:15:19.370Z,9.79
2017-11-15T22:16:19.407Z,9.76
2017-11-15T22:17:19.438Z,9.7
2017-11-15T22:18:19.474Z,9.68
2017-11-15T22:19:19.503Z,9.76
2017-11-15T22:20:19.540Z,9.71
2017-11-15T22:21:19.575Z,9.75
2017-11-15T22:22:19.606Z,9.71
2017-11-15T22:23:19.634Z,9.85
2017-11-15T22:24:19.678Z,9.79
2017-11-15T22:25:19.709Z,9.76
2017-11-15T22:26:19.739Z,9.82
2017-11-15T22:27:19.771Z,9.76
2017-11-15T22:28:19.807Z,9.83
2017-11-15T22:29:20.114Z,9.75
2017-11-15T22:30:19.873Z,9.86
2017-11-15T22:31:19.904Z,9.76
2017-11-15T22:32:19.941Z,9.81
2017-11-15T22:33:19.973Z,9.79
2017-11-15T22:34:20.006Z,9.83
2017-11-15T22:35:20.039Z,9.91
2017-11-15T22:36:20.074Z,9.85
2017-11-15T22:37:20.110Z,9.76
2017-11-15T22:38:20.409Z,9.79
2017-11-15T22:39:20.442Z,9.83
2017-11-15T22:40:20.204Z,9.85
2017-11-15T22:41:20.242Z,9.89
2017-11-15T22:42:20.272Z,9.76
2017-11-15T22:43:20.311Z,9.79
2017-11-15T22:44:20.341Z,9.81
2017-11-15T22:45:20.372Z,9.81
2017-11-15T22:46:20.410Z,9.79
2017-11-15T22:47:20.445Z,9.83
2017-11-15T22:48:20.473Z,9.82
2017-11-15T22:49:20.507Z,9.81
2017-11-15T22:50:20.549Z,9.78
2017-11-15T22:51:20.841Z,9.83
2017-11-15T22:52:20.607Z,9.83
2017-11-15T22:53:20.644Z,9.71
2017-11-15T22:54:20.674Z,9.68
2017-11-15T22:55:20.711Z,9.73
2017-11-15T22:56:20.750Z,9.75
2017-11-15T22:57:20.776Z,9.73
2017-11-15T22:58:21.078Z,9.76
2017-11-15T22:59:20.841Z,9.73
2017-11-15T23:00:20.877Z,9.75
2017-11-15T23:01:20.918Z,9.83
2017-11-15T23:02:20.954Z,9.75
2017-11-15T23:03:20.981Z,9.78
2017-11-15T23:04:21.014Z,9.71
2017-11-15T23:05:21.317Z,9.68
2017-11-15T23:06:21.074Z,9.71
2017-11-15T23:07:21.119Z,9.7
2017-11-15T23:08:21.145Z,9.58
2017-11-15T23:09:21.178Z,9.7
2017-11-15T23:10:21.213Z,9.67
2017-11-15T23:11:21.245Z,9.64
2017-11-15T23:12:21.277Z,9.67
2017-11-15T23:13:21.309Z,9.71
2017-11-15T23:14:21.348Z,9.68
2017-11-15T23:15:21.378Z,9.73
2017-11-15T23:16:21.409Z,9.78
2017-11-15T23:17:21.444Z,9.79
2017-11-15T23:18:21.495Z,9.83
2017-11-15T23:19:21.510Z,9.85
2017-11-15T23:20:21.548Z,9.81
2017-11-15T23:21:21.576Z,9.82
2017-11-15T23:22:21.614Z,9.79
2017-11-15T23:23:21.648Z,9.82
2017-11-15T23:24:21.682Z,9.76
2017-11-15T23:25:21.711Z,9.78
2017-11-15T23:26:21.749Z,9.75
2017-11-15T23:27:21.779Z,9.68
2017-11-15T23:28:21.810Z,9.75
2017-11-15T23:29:21.895Z,9.75
2017-11-15T23:30:21.886Z,9.71
2017-11-15T23:31:21.913Z,9.68
2017-11-15T23:32:21.949Z,9.71
2017-11-15T23:33:21.980Z,9.73
2017-11-15T23:34:22.018Z,9.81
2017-11-15T23:35:22.049Z,9.78
2017-11-15T23:36:22.079Z,9.71
2017-11-15T23:37:22.112Z,9.73
2017-11-15T23:38:22.149Z,9.83
2017-11-15T23:39:22.184Z,9.73
2017-11-15T23:40:22.218Z,9.75
2017-11-15T23:41:22.511Z,9.71
2017-11-15T23:42:22.284Z,9.73
2017-11-15T23:43:22.316Z,9.76
2017-11-15T23:44:22.357Z,9.75
2017-11-15T23:45:22.379Z,9.78
2017-11-15T23:46:22.417Z,9.71
2017-11-15T23:47:22.447Z,9.73
2017-11-15T23:48:22.484Z,9.76
2017-11-15T23:49:22.517Z,9.79
2017-11-15T23:50:22.555Z,9.75
2017-11-15T23:51:22.585Z,9.79
2017-11-15T23:52:22.621Z,9.75
2017-11-15T23:53:22.651Z,9.75
2017-11-15T23:54:22.683Z,9.79
2017-11-15T23:55:22.717Z,9.81
2017-11-15T23:56:23.011Z,9.75
2017-11-15T23:57:22.818Z,9.73
2017-11-15T23:58:22.820Z,9.81
2017-11-15T23:59:22.876Z,9.79
